General Aviation Weather

Text Reports

Enter one or more of the following location identifiers separated by a space:

Zip Code, Four-Character ICAO or Three-Character IATA airport codes.

METAR - Aviation Routine Weather Report
KPRG - Paris, Illinois
Updated at 6:15 AM GMT on August 29, 2014 (1:15 AM CDT):
METAR KPRG 290615Z AUTO 12004KT 10SM CLR 22/21 A3002 RMK AO2 T02200205
TAF - Terminal Area Forecast
KPRG - Paris, Illinois
Updated at 6:15 AM GMT on August 29, 2014 (1:15 AM CDT):
No TAF is currently available for this location.
Decoded:
No decoded TAF is available.
PIREP - Pilot Weather Report
KPRG - Paris, Illinois
Updated at 6:15 AM GMT on August 29, 2014 (1:15 AM CDT):
No PIREP is currently available for this location.
AIRMET - Airmens Meteorological Information
KPRG - Paris, Illinois
Updated at 6:15 AM GMT on August 29, 2014 (1:15 AM CDT):
No AIRMET is currently available for this location.
SIGMET - Significant Meteorological Information
KPRG - Paris, Illinois
Updated at 6:15 AM GMT on August 29, 2014 (1:15 AM CDT):
No SIGMET is currently available for this location.
NOTAM - Notice to Airmen
KPRG - Paris, Illinois
Updated at 6:15 AM GMT on August 29, 2014 (1:15 AM CDT):
No NOTAM is currently available for this location.
Forecast Area
KPRG - Paris, Illinois
Updated at 6:15 AM GMT on August 29, 2014 (1:15 AM CDT):
No NOTAM is currently available for this location.
Aviation Weather Maps